Japan Airlines Virtual Airport Information Service

Southwest Florida International Airport

ICAO: KRSW Country: United States
Latitude: 26.5362 Longitude: -81.7551
Latest Arrival : AAL1070 (1A) (KDFW-KRSW) Latest Departure : SIA1X (KRSW-MMUN)


WX CaptureLIVE
Data provided by noaa.gov | Fetched at 07:21:48

METAR : KRSW 090653Z AUTO 22004KT 10SM CLR 26/24 A2994 RMK AO2 SLP136 T02560239

TAF : KRSW 090534Z 0906/1006 VRB03KT P6SM FEW025 BKN250 FM091400 30007KT P6SM SCT030 SCT250 FM091800 28012KT P6SM SCT040 SCT130 BKN250 FM100300 28005KT P6SM FEW040 FEW250


Runway Data for KRSW
Data provided by openaviationdata.com

Runway ID Mag Var Hdg Length Elevation Surface ILS Freq ILS Id ILS Slope
6 -3 57° 12007 ft 30 ft Asphalt 111.5 IRSW 3
24 -3 237° 12007 ft 30 ft Asphalt -- -- --

Southwest Florida International Airport, United States
Use only for reference purposes



Not for navigational purposes.